sensor_id;sensor_type;location;lat;lon;timestamp;temperature;humidity
70867;HTU21D;58487;53.474;49.470;2022-12-29T00:01:43;-5.87;115.47
70867;HTU21D;58487;53.474;49.470;2022-12-29T00:04:15;-5.89;118.99
70867;HTU21D;58487;53.474;49.470;2022-12-29T00:06:46;-6.07;118.99
70867;HTU21D;58487;53.474;49.470;2022-12-29T00:09:18;-5.89;117.91
70867;HTU21D;58487;53.474;49.470;2022-12-29T00:11:49;-6.00;118.99
70867;HTU21D;58487;53.474;49.470;2022-12-29T00:14:21;-6.00;118.99
70867;HTU21D;58487;53.474;49.470;2022-12-29T00:17:10;-6.03;118.99
70867;HTU21D;58487;53.474;49.470;2022-12-29T00:19:42;-6.00;118.99
70867;HTU21D;58487;53.474;49.470;2022-12-29T00:22:31;-6.00;118.99
70867;HTU21D;58487;53.474;49.470;2022-12-29T00:25:21;-6.23;118.99
70867;HTU21D;58487;53.474;49.470;2022-12-29T00:28:11;-6.30;118.99
70867;HTU21D;58487;53.474;49.470;2022-12-29T00:31:09;-6.06;118.99
70867;HTU21D;58487;53.474;49.470;2022-12-29T00:34:10;-6.21;118.99
70867;HTU21D;58487;53.474;49.470;2022-12-29T00:37:00;-6.00;118.99
70867;HTU21D;58487;53.474;49.470;2022-12-29T00:39:36;-6.04;118.41
70867;HTU21D;58487;53.474;49.470;2022-12-29T00:42:25;-6.05;118.99
70867;HTU21D;58487;53.474;49.470;2022-12-29T00:45:34;-6.16;118.99
70867;HTU21D;58487;53.474;49.470;2022-12-29T00:48:08;-5.99;118.99
70867;HTU21D;58487;53.474;49.470;2022-12-29T00:50:42;-6.21;118.99
70867;HTU21D;58487;53.474;49.470;2022-12-29T00:53:13;-6.06;118.99
70867;HTU21D;58487;53.474;49.470;2022-12-29T00:55:44;-6.16;118.99
70867;HTU21D;58487;53.474;49.470;2022-12-29T00:58:16;-6.01;118.99
70867;HTU21D;58487;53.474;49.470;2022-12-29T01:00:47;-6.09;118.99
70867;HTU21D;58487;53.474;49.470;2022-12-29T01:03:18;-6.01;118.99
70867;HTU21D;58487;53.474;49.470;2022-12-29T01:05:49;-5.94;118.99
70867;HTU21D;58487;53.474;49.470;2022-12-29T01:08:21;-5.99;118.99
70867;HTU21D;58487;53.474;49.470;2022-12-29T01:11:08;-5.89;118.15
70867;HTU21D;58487;53.474;49.470;2022-12-29T01:13:43;-5.89;118.99
70867;HTU21D;58487;53.474;49.470;2022-12-29T01:16:14;-5.88;118.99
70867;HTU21D;58487;53.474;49.470;2022-12-29T01:18:46;-6.14;118.99
70867;HTU21D;58487;53.474;49.470;2022-12-29T01:21:17;-5.98;118.99
70867;HTU21D;58487;53.474;49.470;2022-12-29T01:23:49;-6.00;118.99
70867;HTU21D;58487;53.474;49.470;2022-12-29T01:26:20;-5.94;118.99
70867;HTU21D;58487;53.474;49.470;2022-12-29T01:28:51;-5.92;118.99
70867;HTU21D;58487;53.474;49.470;2022-12-29T01:31:23;-5.92;118.99
70867;HTU21D;58487;53.474;49.470;2022-12-29T01:33:54;-5.90;118.99
70867;HTU21D;58487;53.474;49.470;2022-12-29T01:36:25;-5.93;118.99
70867;HTU21D;58487;53.474;49.470;2022-12-29T01:38:56;-5.93;118.99
70867;HTU21D;58487;53.474;49.470;2022-12-29T01:41:28;-5.89;118.99
70867;HTU21D;58487;53.474;49.470;2022-12-29T01:43:59;-5.91;118.99
70867;HTU21D;58487;53.474;49.470;2022-12-29T01:46:40;-5.87;118.99
70867;HTU21D;58487;53.474;49.470;2022-12-29T01:49:30;-5.84;118.99
70867;HTU21D;58487;53.474;49.470;2022-12-29T01:52:07;-5.70;118.99
70867;HTU21D;58487;53.474;49.470;2022-12-29T01:54:51;-5.77;118.99
70867;HTU21D;58487;53.474;49.470;2022-12-29T01:57:29;-5.73;118.99
70867;HTU21D;58487;53.474;49.470;2022-12-29T02:00:06;-5.76;118.99
70867;HTU21D;58487;53.474;49.470;2022-12-29T02:02:47;-5.68;118.99
70867;HTU21D;58487;53.474;49.470;2022-12-29T02:07:55;-5.82;118.99
70867;HTU21D;58487;53.474;49.470;2022-12-29T02:10:29;-5.92;118.99
70867;HTU21D;58487;53.474;49.470;2022-12-29T02:13:01;-5.71;118.99
70867;HTU21D;58487;53.474;49.470;2022-12-29T02:21:48;-5.70;118.99
70867;HTU21D;58487;53.474;49.470;2022-12-29T02:32:42;-6.02;118.99
70867;HTU21D;58487;53.474;49.470;2022-12-29T02:40:53;-5.96;118.99
70867;HTU21D;58487;53.474;49.470;2022-12-29T02:43:26;-6.12;118.99
70867;HTU21D;58487;53.474;49.470;2022-12-29T02:49:22;-6.09;118.99
70867;HTU21D;58487;53.474;49.470;2022-12-29T02:52:04;-6.02;118.99
70867;HTU21D;58487;53.474;49.470;2022-12-29T02:54:37;-6.01;118.99
70867;HTU21D;58487;53.474;49.470;2022-12-29T03:00:04;-6.19;118.99
70867;HTU21D;58487;53.474;49.470;2022-12-29T03:08:06;-6.23;118.99
70867;HTU21D;58487;53.474;49.470;2022-12-29T03:11:02;-6.19;118.99
70867;HTU21D;58487;53.474;49.470;2022-12-29T03:16:35;-6.29;118.99
70867;HTU21D;58487;53.474;49.470;2022-12-29T03:21:57;-6.18;118.99
70867;HTU21D;58487;53.474;49.470;2022-12-29T03:24:51;-6.20;118.99
70867;HTU21D;58487;53.474;49.470;2022-12-29T03:27:29;-6.32;118.99
70867;HTU21D;58487;53.474;49.470;2022-12-29T03:30:04;-6.21;118.99
70867;HTU21D;58487;53.474;49.470;2022-12-29T03:32:46;-6.09;118.99
70867;HTU21D;58487;53.474;49.470;2022-12-29T03:35:22;-6.28;118.99
70867;HTU21D;58487;53.474;49.470;2022-12-29T03:38:08;-6.28;118.99
70867;HTU21D;58487;53.474;49.470;2022-12-29T03:40:48;-6.44;118.99
70867;HTU21D;58487;53.474;49.470;2022-12-29T03:43:20;-6.23;118.99
70867;HTU21D;58487;53.474;49.470;2022-12-29T03:45:52;-6.33;118.99
70867;HTU21D;58487;53.474;49.470;2022-12-29T03:48:23;-6.09;118.99
70867;HTU21D;58487;53.474;49.470;2022-12-29T03:50:54;-6.08;118.99
70867;HTU21D;58487;53.474;49.470;2022-12-29T03:53:26;-6.30;118.99
70867;HTU21D;58487;53.474;49.470;2022-12-29T03:55:57;-6.48;118.99
70867;HTU21D;58487;53.474;49.470;2022-12-29T03:58:28;-6.27;118.99
70867;HTU21D;58487;53.474;49.470;2022-12-29T04:00:59;-6.18;118.99
70867;HTU21D;58487;53.474;49.470;2022-12-29T04:03:31;-6.31;118.99
70867;HTU21D;58487;53.474;49.470;2022-12-29T04:06:02;-6.23;118.99
70867;HTU21D;58487;53.474;49.470;2022-12-29T04:08:33;-6.37;118.99
70867;HTU21D;58487;53.474;49.470;2022-12-29T04:11:05;-6.47;118.99
70867;HTU21D;58487;53.474;49.470;2022-12-29T04:13:42;-6.36;118.99
70867;HTU21D;58487;53.474;49.470;2022-12-29T04:16:13;-6.28;118.99
70867;HTU21D;58487;53.474;49.470;2022-12-29T04:18:44;-6.26;118.99
70867;HTU21D;58487;53.474;49.470;2022-12-29T04:21:16;-6.39;118.99
70867;HTU21D;58487;53.474;49.470;2022-12-29T04:23:47;-6.32;118.99
70867;HTU21D;58487;53.474;49.470;2022-12-29T04:26:18;-6.23;118.99
70867;HTU21D;58487;53.474;49.470;2022-12-29T04:28:50;-6.23;118.99
70867;HTU21D;58487;53.474;49.470;2022-12-29T04:31:21;-6.46;118.99
70867;HTU21D;58487;53.474;49.470;2022-12-29T04:33:52;-6.23;118.99
70867;HTU21D;58487;53.474;49.470;2022-12-29T04:36:24;-6.38;118.99
70867;HTU21D;58487;53.474;49.470;2022-12-29T04:38:55;-6.29;118.99
70867;HTU21D;58487;53.474;49.470;2022-12-29T04:41:26;-6.33;118.99
70867;HTU21D;58487;53.474;49.470;2022-12-29T04:43:58;-6.58;118.99
70867;HTU21D;58487;53.474;49.470;2022-12-29T04:46:29;-6.56;118.99
70867;HTU21D;58487;53.474;49.470;2022-12-29T04:49:00;-6.34;118.99
70867;HTU21D;58487;53.474;49.470;2022-12-29T04:51:38;-6.47;118.99
70867;HTU21D;58487;53.474;49.470;2022-12-29T04:54:09;-6.32;118.99
70867;HTU21D;58487;53.474;49.470;2022-12-29T04:56:41;-6.52;118.99
70867;HTU21D;58487;53.474;49.470;2022-12-29T04:59:12;-6.55;118.99
70867;HTU21D;58487;53.474;49.470;2022-12-29T05:01:43;-6.55;118.99
70867;HTU21D;58487;53.474;49.470;2022-12-29T05:04:17;-6.62;118.99
70867;HTU21D;58487;53.474;49.470;2022-12-29T05:06:49;-6.46;118.99
70867;HTU21D;58487;53.474;49.470;2022-12-29T05:09:20;-6.59;118.99
70867;HTU21D;58487;53.474;49.470;2022-12-29T05:11:51;-6.67;118.99
70867;HTU21D;58487;53.474;49.470;2022-12-29T05:14:23;-6.60;118.99
70867;HTU21D;58487;53.474;49.470;2022-12-29T05:16:54;-6.65;118.99
70867;HTU21D;58487;53.474;49.470;2022-12-29T05:19:25;-6.78;118.99
70867;HTU21D;58487;53.474;49.470;2022-12-29T05:21:57;-6.65;118.99
70867;HTU21D;58487;53.474;49.470;2022-12-29T05:24:28;-6.52;118.99
70867;HTU21D;58487;53.474;49.470;2022-12-29T05:27:00;-6.60;118.99
70867;HTU21D;58487;53.474;49.470;2022-12-29T05:29:31;-6.33;118.99
70867;HTU21D;58487;53.474;49.470;2022-12-29T05:32:03;-6.27;118.99
70867;HTU21D;58487;53.474;49.470;2022-12-29T05:34:34;-6.41;118.99
70867;HTU21D;58487;53.474;49.470;2022-12-29T05:37:05;-6.70;118.99
70867;HTU21D;58487;53.474;49.470;2022-12-29T05:39:37;-6.45;118.99
70867;HTU21D;58487;53.474;49.470;2022-12-29T05:42:08;-6.50;118.99
70867;HTU21D;58487;53.474;49.470;2022-12-29T05:44:39;-6.31;118.99
70867;HTU21D;58487;53.474;49.470;2022-12-29T05:47:11;-6.48;118.99
70867;HTU21D;58487;53.474;49.470;2022-12-29T05:49:42;-6.73;118.99
70867;HTU21D;58487;53.474;49.470;2022-12-29T05:52:13;-6.59;118.99
70867;HTU21D;58487;53.474;49.470;2022-12-29T05:54:45;-6.43;118.99
70867;HTU21D;58487;53.474;49.470;2022-12-29T05:57:16;-6.23;118.99
70867;HTU21D;58487;53.474;49.470;2022-12-29T05:59:48;-6.23;118.99
70867;HTU21D;58487;53.474;49.470;2022-12-29T06:02:19;-6.32;118.99
70867;HTU21D;58487;53.474;49.470;2022-12-29T06:04:50;-6.34;118.99
70867;HTU21D;58487;53.474;49.470;2022-12-29T06:07:21;-6.16;118.99
70867;HTU21D;58487;53.474;49.470;2022-12-29T06:09:53;-6.09;118.99
70867;HTU21D;58487;53.474;49.470;2022-12-29T06:12:24;-6.03;118.99
70867;HTU21D;58487;53.474;49.470;2022-12-29T06:14:56;-5.94;118.99
70867;HTU21D;58487;53.474;49.470;2022-12-29T06:17:27;-6.12;118.99
70867;HTU21D;58487;53.474;49.470;2022-12-29T06:19:58;-6.07;118.99
70867;HTU21D;58487;53.474;49.470;2022-12-29T06:22:29;-6.00;118.99
70867;HTU21D;58487;53.474;49.470;2022-12-29T06:25:01;-6.00;118.99
70867;HTU21D;58487;53.474;49.470;2022-12-29T06:27:32;-5.88;118.99
70867;HTU21D;58487;53.474;49.470;2022-12-29T06:30:04;-5.88;118.99
70867;HTU21D;58487;53.474;49.470;2022-12-29T06:32:36;-5.86;118.99
70867;HTU21D;58487;53.474;49.470;2022-12-29T06:35:09;-5.77;118.99
70867;HTU21D;58487;53.474;49.470;2022-12-29T06:37:40;-5.87;118.99
70867;HTU21D;58487;53.474;49.470;2022-12-29T06:40:11;-5.86;118.99
70867;HTU21D;58487;53.474;49.470;2022-12-29T06:42:46;-5.91;118.99
70867;HTU21D;58487;53.474;49.470;2022-12-29T06:45:17;-5.68;118.99
70867;HTU21D;58487;53.474;49.470;2022-12-29T06:47:48;-5.76;118.99
70867;HTU21D;58487;53.474;49.470;2022-12-29T06:50:19;-5.47;118.99
70867;HTU21D;58487;53.474;49.470;2022-12-29T06:52:54;-5.37;118.99
70867;HTU21D;58487;53.474;49.470;2022-12-29T06:55:25;-5.19;118.99
70867;HTU21D;58487;53.474;49.470;2022-12-29T06:57:57;-5.43;118.99
70867;HTU21D;58487;53.474;49.470;2022-12-29T07:00:35;-5.44;118.99
70867;HTU21D;58487;53.474;49.470;2022-12-29T07:03:06;-5.49;118.99
70867;HTU21D;58487;53.474;49.470;2022-12-29T07:05:38;-5.61;118.99
70867;HTU21D;58487;53.474;49.470;2022-12-29T07:08:09;-5.77;118.99
70867;HTU21D;58487;53.474;49.470;2022-12-29T07:10:40;-5.50;118.99
70867;HTU21D;58487;53.474;49.470;2022-12-29T07:13:12;-5.44;118.99
70867;HTU21D;58487;53.474;49.470;2022-12-29T07:15:43;-5.39;118.99
70867;HTU21D;58487;53.474;49.470;2022-12-29T07:18:15;-5.34;118.99
70867;HTU21D;58487;53.474;49.470;2022-12-29T07:20:46;-5.57;118.99
70867;HTU21D;58487;53.474;49.470;2022-12-29T07:23:17;-5.68;118.99
70867;HTU21D;58487;53.474;49.470;2022-12-29T07:25:49;-5.38;118.99
70867;HTU21D;58487;53.474;49.470;2022-12-29T07:28:20;-5.37;118.99
70867;HTU21D;58487;53.474;49.470;2022-12-29T07:30:51;-5.14;118.99
70867;HTU21D;58487;53.474;49.470;2022-12-29T07:33:23;-5.34;118.99
70867;HTU21D;58487;53.474;49.470;2022-12-29T07:35:54;-5.15;118.99
70867;HTU21D;58487;53.474;49.470;2022-12-29T07:38:27;-5.19;118.99
70867;HTU21D;58487;53.474;49.470;2022-12-29T07:40:58;-5.17;118.99
70867;HTU21D;58487;53.474;49.470;2022-12-29T07:43:30;-5.37;118.99
70867;HTU21D;58487;53.474;49.470;2022-12-29T07:46:01;-5.17;118.99
70867;HTU21D;58487;53.474;49.470;2022-12-29T07:48:32;-5.18;118.99
70867;HTU21D;58487;53.474;49.470;2022-12-29T07:51:06;-5.15;118.99
70867;HTU21D;58487;53.474;49.470;2022-12-29T07:53:38;-5.20;118.99
70867;HTU21D;58487;53.474;49.470;2022-12-29T07:56:09;-5.13;118.99
70867;HTU21D;58487;53.474;49.470;2022-12-29T07:58:41;-5.02;118.99
70867;HTU21D;58487;53.474;49.470;2022-12-29T08:01:13;-5.00;118.99
70867;HTU21D;58487;53.474;49.470;2022-12-29T08:03:45;-4.84;118.99
70867;HTU21D;58487;53.474;49.470;2022-12-29T08:06:16;-4.94;118.99
70867;HTU21D;58487;53.474;49.470;2022-12-29T08:08:47;-4.88;118.99
70867;HTU21D;58487;53.474;49.470;2022-12-29T08:11:19;-4.80;118.99
70867;HTU21D;58487;53.474;49.470;2022-12-29T08:13:50;-4.73;118.99
70867;HTU21D;58487;53.474;49.470;2022-12-29T08:16:22;-4.65;118.99
70867;HTU21D;58487;53.474;49.470;2022-12-29T08:18:53;-4.65;118.99
70867;HTU21D;58487;53.474;49.470;2022-12-29T08:21:25;-4.57;118.99
70867;HTU21D;58487;53.474;49.470;2022-12-29T08:23:57;-4.56;118.99
70867;HTU21D;58487;53.474;49.470;2022-12-29T08:26:29;-4.59;118.99
70867;HTU21D;58487;53.474;49.470;2022-12-29T08:29:01;-4.61;118.99
70867;HTU21D;58487;53.474;49.470;2022-12-29T08:31:35;-4.73;118.99
70867;HTU21D;58487;53.474;49.470;2022-12-29T08:34:07;-4.75;118.99
70867;HTU21D;58487;53.474;49.470;2022-12-29T08:36:39;-4.78;118.99
70867;HTU21D;58487;53.474;49.470;2022-12-29T08:39:10;-4.93;118.99
70867;HTU21D;58487;53.474;49.470;2022-12-29T08:41:41;-5.09;118.99
70867;HTU21D;58487;53.474;49.470;2022-12-29T08:44:12;-5.14;118.99
70867;HTU21D;58487;53.474;49.470;2022-12-29T08:46:44;-5.09;118.99
70867;HTU21D;58487;53.474;49.470;2022-12-29T08:49:15;-5.17;118.99
70867;HTU21D;58487;53.474;49.470;2022-12-29T08:51:46;-5.00;118.99
70867;HTU21D;58487;53.474;49.470;2022-12-29T08:54:18;-5.10;118.99
70867;HTU21D;58487;53.474;49.470;2022-12-29T08:56:49;-5.17;118.99
70867;HTU21D;58487;53.474;49.470;2022-12-29T08:59:20;-4.98;118.99
70867;HTU21D;58487;53.474;49.470;2022-12-29T09:01:52;-4.81;118.99
70867;HTU21D;58487;53.474;49.470;2022-12-29T09:04:23;-4.68;118.99
70867;HTU21D;58487;53.474;49.470;2022-12-29T09:06:54;-4.45;118.99
70867;HTU21D;58487;53.474;49.470;2022-12-29T09:09:26;-4.39;118.99
70867;HTU21D;58487;53.474;49.470;2022-12-29T09:11:57;-4.41;118.99
70867;HTU21D;58487;53.474;49.470;2022-12-29T09:14:28;-4.36;118.99
70867;HTU21D;58487;53.474;49.470;2022-12-29T09:16:59;-4.38;118.99
70867;HTU21D;58487;53.474;49.470;2022-12-29T09:19:51;-4.41;118.99
70867;HTU21D;58487;53.474;49.470;2022-12-29T09:22:24;-4.31;118.99
70867;HTU21D;58487;53.474;49.470;2022-12-29T09:24:55;-4.16;118.99
70867;HTU21D;58487;53.474;49.470;2022-12-29T09:27:26;-4.16;118.99
70867;HTU21D;58487;53.474;49.470;2022-12-29T09:29:58;-4.17;118.99
70867;HTU21D;58487;53.474;49.470;2022-12-29T09:32:29;-4.17;118.99
70867;HTU21D;58487;53.474;49.470;2022-12-29T09:35:01;-4.04;118.99
70867;HTU21D;58487;53.474;49.470;2022-12-29T09:37:32;-4.11;118.99
70867;HTU21D;58487;53.474;49.470;2022-12-29T09:40:05;-4.06;118.99
70867;HTU21D;58487;53.474;49.470;2022-12-29T09:46:13;-3.76;118.99
70867;HTU21D;58487;53.474;49.470;2022-12-29T09:48:47;-3.81;118.99
70867;HTU21D;58487;53.474;49.470;2022-12-29T09:51:22;-3.69;118.99
70867;HTU21D;58487;53.474;49.470;2022-12-29T09:56:49;-3.13;118.99
70867;HTU21D;58487;53.474;49.470;2022-12-29T09:59:27;-3.22;118.99
70867;HTU21D;58487;53.474;49.470;2022-12-29T10:02:24;-3.13;118.99
70867;HTU21D;58487;53.474;49.470;2022-12-29T10:05:00;-3.17;118.99
70867;HTU21D;58487;53.474;49.470;2022-12-29T10:10:48;-3.35;118.99
70867;HTU21D;58487;53.474;49.470;2022-12-29T10:24:48;-3.78;118.99
70867;HTU21D;58487;53.474;49.470;2022-12-29T10:27:22;-3.86;118.99
70867;HTU21D;58487;53.474;49.470;2022-12-29T10:29:55;-3.85;118.99
70867;HTU21D;58487;53.474;49.470;2022-12-29T10:32:44;-3.54;118.99
70867;HTU21D;58487;53.474;49.470;2022-12-29T10:35:25;-3.17;118.99
70867;HTU21D;58487;53.474;49.470;2022-12-29T10:41:05;-2.56;118.99
70867;HTU21D;58487;53.474;49.470;2022-12-29T10:43:53;-2.43;118.99
70867;HTU21D;58487;53.474;49.470;2022-12-29T10:46:30;-2.53;118.99
70867;HTU21D;58487;53.474;49.470;2022-12-29T10:49:05;-2.29;118.99
70867;HTU21D;58487;53.474;49.470;2022-12-29T10:51:39;-1.88;118.99
70867;HTU21D;58487;53.474;49.470;2022-12-29T10:54:19;-1.88;118.99
70867;HTU21D;58487;53.474;49.470;2022-12-29T10:56:56;-1.90;118.99
70867;HTU21D;58487;53.474;49.470;2022-12-29T10:59:33;-2.41;118.99
70867;HTU21D;58487;53.474;49.470;2022-12-29T11:04:55;-3.22;118.99
70867;HTU21D;58487;53.474;49.470;2022-12-29T11:07:30;-3.68;118.99
70867;HTU21D;58487;53.474;49.470;2022-12-29T11:13:11;-3.82;118.99
70867;HTU21D;58487;53.474;49.470;2022-12-29T11:15:49;-4.02;118.99
70867;HTU21D;58487;53.474;49.470;2022-12-29T11:18:30;-4.08;118.99
70867;HTU21D;58487;53.474;49.470;2022-12-29T11:21:05;-4.20;118.99
70867;HTU21D;58487;53.474;49.470;2022-12-29T11:23:39;-4.29;118.99
70867;HTU21D;58487;53.474;49.470;2022-12-29T11:26:22;-4.26;118.99
70867;HTU21D;58487;53.474;49.470;2022-12-29T11:29:28;-4.27;118.99
70867;HTU21D;58487;53.474;49.470;2022-12-29T11:32:22;-4.19;118.99
70867;HTU21D;58487;53.474;49.470;2022-12-29T11:34:55;-4.01;118.99
70867;HTU21D;58487;53.474;49.470;2022-12-29T11:37:36;-4.12;118.99
70867;HTU21D;58487;53.474;49.470;2022-12-29T11:40:20;-4.32;118.99
70867;HTU21D;58487;53.474;49.470;2022-12-29T11:42:54;-4.36;118.99
70867;HTU21D;58487;53.474;49.470;2022-12-29T11:45:28;-4.52;118.99
70867;HTU21D;58487;53.474;49.470;2022-12-29T11:50:40;-4.76;118.99
70867;HTU21D;58487;53.474;49.470;2022-12-29T11:55:57;-4.71;118.99
70867;HTU21D;58487;53.474;49.470;2022-12-29T11:58:34;-4.54;118.99
70867;HTU21D;58487;53.474;49.470;2022-12-29T12:04:11;-4.07;118.99
70867;HTU21D;58487;53.474;49.470;2022-12-29T12:09:58;-4.00;118.99
70867;HTU21D;58487;53.474;49.470;2022-12-29T12:12:39;-4.20;118.99
70867;HTU21D;58487;53.474;49.470;2022-12-29T12:15:22;-4.40;118.99
70867;HTU21D;58487;53.474;49.470;2022-12-29T12:26:55;-4.45;118.99
70867;HTU21D;58487;53.474;49.470;2022-12-29T12:30:03;-4.39;118.99
70867;HTU21D;58487;53.474;49.470;2022-12-29T12:35:44;-4.65;118.99
70867;HTU21D;58487;53.474;49.470;2022-12-29T12:41:34;-4.72;118.99
70867;HTU21D;58487;53.474;49.470;2022-12-29T12:47:20;-4.94;118.99
70867;HTU21D;58487;53.474;49.470;2022-12-29T12:50:11;-4.90;118.99
70867;HTU21D;58487;53.474;49.470;2022-12-29T12:58:32;-4.72;118.99
70867;HTU21D;58487;53.474;49.470;2022-12-29T13:03:56;-4.84;118.99
70867;HTU21D;58487;53.474;49.470;2022-12-29T13:20:49;-4.80;118.99
70867;HTU21D;58487;53.474;49.470;2022-12-29T13:34:26;-4.91;118.99
70867;HTU21D;58487;53.474;49.470;2022-12-29T13:37:09;-4.90;118.99
70867;HTU21D;58487;53.474;49.470;2022-12-29T13:39:46;-5.02;118.99
70867;HTU21D;58487;53.474;49.470;2022-12-29T13:42:19;-5.11;118.99
70867;HTU21D;58487;53.474;49.470;2022-12-29T13:50:21;-5.18;118.99
70867;HTU21D;58487;53.474;49.470;2022-12-29T13:53:10;-5.28;118.99
70867;HTU21D;58487;53.474;49.470;2022-12-29T13:56:17;-5.24;118.99
70867;HTU21D;58487;53.474;49.470;2022-12-29T14:02:08;-5.22;118.99
70867;HTU21D;58487;53.474;49.470;2022-12-29T14:04:57;-5.28;118.99
70867;HTU21D;58487;53.474;49.470;2022-12-29T14:07:29;-5.32;118.99
70867;HTU21D;58487;53.474;49.470;2022-12-29T14:10:33;-5.30;118.99
70867;HTU21D;58487;53.474;49.470;2022-12-29T14:13:17;-5.26;118.99
70867;HTU21D;58487;53.474;49.470;2022-12-29T14:15:57;-5.25;118.99
70867;HTU21D;58487;53.474;49.470;2022-12-29T14:18:32;-5.34;118.99
70867;HTU21D;58487;53.474;49.470;2022-12-29T14:21:10;-5.27;118.99
70867;HTU21D;58487;53.474;49.470;2022-12-29T14:23:50;-5.37;118.99
70867;HTU21D;58487;53.474;49.470;2022-12-29T14:32:00;-5.14;118.99
70867;HTU21D;58487;53.474;49.470;2022-12-29T14:34:38;-5.20;118.99
70867;HTU21D;58487;53.474;49.470;2022-12-29T14:40:23;-5.18;118.99
70867;HTU21D;58487;53.474;49.470;2022-12-29T14:42:55;-5.16;118.99
70867;HTU21D;58487;53.474;49.470;2022-12-29T14:45:30;-5.13;118.99
70867;HTU21D;58487;53.474;49.470;2022-12-29T14:48:41;-5.24;118.99
70867;HTU21D;58487;53.474;49.470;2022-12-29T14:51:19;-5.46;118.99
70867;HTU21D;58487;53.474;49.470;2022-12-29T14:53:51;-5.37;118.99
70867;HTU21D;58487;53.474;49.470;2022-12-29T14:56:29;-5.18;118.99
70867;HTU21D;58487;53.474;49.470;2022-12-29T14:59:10;-5.13;118.99
70867;HTU21D;58487;53.474;49.470;2022-12-29T15:01:49;-4.97;118.99
70867;HTU21D;58487;53.474;49.470;2022-12-29T15:04:26;-5.11;118.99
70867;HTU21D;58487;53.474;49.470;2022-12-29T15:06:59;-4.88;118.99
70867;HTU21D;58487;53.474;49.470;2022-12-29T15:14:53;-5.09;118.99
70867;HTU21D;58487;53.474;49.470;2022-12-29T15:17:32;-5.00;118.99
70867;HTU21D;58487;53.474;49.470;2022-12-29T15:22:57;-5.24;118.99
70867;HTU21D;58487;53.474;49.470;2022-12-29T15:25:30;-5.22;118.99
70867;HTU21D;58487;53.474;49.470;2022-12-29T15:28:06;-5.19;118.99
70867;HTU21D;58487;53.474;49.470;2022-12-29T15:30:56;-5.26;118.99
70867;HTU21D;58487;53.474;49.470;2022-12-29T15:33:38;-5.38;118.99
70867;HTU21D;58487;53.474;49.470;2022-12-29T15:36:13;-5.37;118.99
70867;HTU21D;58487;53.474;49.470;2022-12-29T15:38:51;-5.43;118.99
70867;HTU21D;58487;53.474;49.470;2022-12-29T15:41:32;-5.40;118.99
70867;HTU21D;58487;53.474;49.470;2022-12-29T15:47:16;-5.32;118.99
70867;HTU21D;58487;53.474;49.470;2022-12-29T15:49:52;-5.32;118.99
70867;HTU21D;58487;53.474;49.470;2022-12-29T15:52:24;-5.40;118.99
70867;HTU21D;58487;53.474;49.470;2022-12-29T15:54:58;-5.43;118.99
70867;HTU21D;58487;53.474;49.470;2022-12-29T15:57:42;-5.42;118.99
70867;HTU21D;58487;53.474;49.470;2022-12-29T16:00:29;-5.47;118.99
70867;HTU21D;58487;53.474;49.470;2022-12-29T16:03:02;-5.46;118.99
70867;HTU21D;58487;53.474;49.470;2022-12-29T16:05:39;-5.45;118.99
70867;HTU21D;58487;53.474;49.470;2022-12-29T16:11:01;-5.60;118.99
70867;HTU21D;58487;53.474;49.470;2022-12-29T16:13:40;-5.67;118.99
70867;HTU21D;58487;53.474;49.470;2022-12-29T16:18:51;-5.56;118.99
70867;HTU21D;58487;53.474;49.470;2022-12-29T16:21:26;-5.53;118.99
70867;HTU21D;58487;53.474;49.470;2022-12-29T16:24:06;-5.65;118.99
70867;HTU21D;58487;53.474;49.470;2022-12-29T16:26:38;-5.56;118.99
70867;HTU21D;58487;53.474;49.470;2022-12-29T16:29:12;-5.59;118.99
70867;HTU21D;58487;53.474;49.470;2022-12-29T16:31:54;-5.44;118.99
70867;HTU21D;58487;53.474;49.470;2022-12-29T16:34:32;-5.43;118.99
70867;HTU21D;58487;53.474;49.470;2022-12-29T16:37:19;-5.46;118.99
70867;HTU21D;58487;53.474;49.470;2022-12-29T16:42:49;-5.44;118.99
70867;HTU21D;58487;53.474;49.470;2022-12-29T16:48:21;-5.42;118.99
70867;HTU21D;58487;53.474;49.470;2022-12-29T16:51:06;-5.38;118.99
70867;HTU21D;58487;53.474;49.470;2022-12-29T16:53:49;-5.46;118.99
70867;HTU21D;58487;53.474;49.470;2022-12-29T16:56:28;-5.47;118.99
70867;HTU21D;58487;53.474;49.470;2022-12-29T16:59:17;-5.26;118.99
70867;HTU21D;58487;53.474;49.470;2022-12-29T17:01:50;-5.56;118.99
70867;HTU21D;58487;53.474;49.470;2022-12-29T17:04:21;-5.31;118.99
70867;HTU21D;58487;53.474;49.470;2022-12-29T17:06:52;-5.48;118.99
70867;HTU21D;58487;53.474;49.470;2022-12-29T17:09:26;-5.50;118.99
70867;HTU21D;58487;53.474;49.470;2022-12-29T17:12:03;-5.27;118.99
70867;HTU21D;58487;53.474;49.470;2022-12-29T17:14:53;-5.29;118.99
70867;HTU21D;58487;53.474;49.470;2022-12-29T17:17:43;-5.27;118.99
70867;HTU21D;58487;53.474;49.470;2022-12-29T17:22:51;-5.47;118.99
70867;HTU21D;58487;53.474;49.470;2022-12-29T17:25:33;-5.43;118.99
70867;HTU21D;58487;53.474;49.470;2022-12-29T17:28:21;-5.40;118.99
70867;HTU21D;58487;53.474;49.470;2022-12-29T17:30:57;-5.28;118.99
70867;HTU21D;58487;53.474;49.470;2022-12-29T17:33:34;-5.34;118.99
70867;HTU21D;58487;53.474;49.470;2022-12-29T17:36:07;-5.29;118.99
70867;HTU21D;58487;53.474;49.470;2022-12-29T17:38:38;-5.34;118.99
70867;HTU21D;58487;53.474;49.470;2022-12-29T17:41:13;-5.37;118.99
70867;HTU21D;58487;53.474;49.470;2022-12-29T17:43:44;-5.23;118.99
70867;HTU21D;58487;53.474;49.470;2022-12-29T17:46:16;-5.56;118.99
70867;HTU21D;58487;53.474;49.470;2022-12-29T17:48:47;-5.55;118.99
70867;HTU21D;58487;53.474;49.470;2022-12-29T17:51:20;-5.56;118.99
70867;HTU21D;58487;53.474;49.470;2022-12-29T17:53:51;-5.40;118.99
70867;HTU21D;58487;53.474;49.470;2022-12-29T17:56:23;-5.53;118.99
70867;HTU21D;58487;53.474;49.470;2022-12-29T17:58:55;-5.48;118.99
70867;HTU21D;58487;53.474;49.470;2022-12-29T18:01:27;-5.60;118.99
70867;HTU21D;58487;53.474;49.470;2022-12-29T18:03:58;-5.53;118.99
70867;HTU21D;58487;53.474;49.470;2022-12-29T18:06:31;-5.42;118.99
70867;HTU21D;58487;53.474;49.470;2022-12-29T18:09:03;-5.53;118.99
70867;HTU21D;58487;53.474;49.470;2022-12-29T18:11:42;-5.55;118.99
70867;HTU21D;58487;53.474;49.470;2022-12-29T18:14:16;-5.45;118.99
70867;HTU21D;58487;53.474;49.470;2022-12-29T18:16:47;-5.54;118.99
70867;HTU21D;58487;53.474;49.470;2022-12-29T18:19:19;-5.47;118.99
70867;HTU21D;58487;53.474;49.470;2022-12-29T18:21:55;-5.53;118.99
70867;HTU21D;58487;53.474;49.470;2022-12-29T18:24:30;-5.48;118.99
70867;HTU21D;58487;53.474;49.470;2022-12-29T18:27:11;-5.52;118.99
70867;HTU21D;58487;53.474;49.470;2022-12-29T18:29:44;-5.52;118.99
70867;HTU21D;58487;53.474;49.470;2022-12-29T18:32:20;-5.54;118.53
70867;HTU21D;58487;53.474;49.470;2022-12-29T18:34:51;-5.62;118.99